sensor_id;sensor_type;location;lat;lon;timestamp;pressure;altitude;pressure_sealevel;temperature;humidity
77737;BME280;66903;59.926;30.404;2023-05-07T00:02:01;102806.75;;;26.06;29.18
77737;BME280;66903;59.926;30.404;2023-05-07T00:07:03;102817.34;;;26.05;29.07
77737;BME280;66903;59.926;30.404;2023-05-07T00:12:04;102811.59;;;26.05;29.24
77737;BME280;66903;59.926;30.404;2023-05-07T00:17:04;102805.88;;;26.05;29.03
77737;BME280;66903;59.926;30.404;2023-05-07T00:22:05;102812.75;;;26.04;29.34
77737;BME280;66903;59.926;30.404;2023-05-07T00:27:06;102806.16;;;26.04;29.07
77737;BME280;66903;59.926;30.404;2023-05-07T00:32:06;102805.28;;;26.03;29.25
77737;BME280;66903;59.926;30.404;2023-05-07T00:37:08;102807.53;;;26.01;28.99
77737;BME280;66903;59.926;30.404;2023-05-07T00:42:09;102816.38;;;26.00;29.26
77737;BME280;66903;59.926;30.404;2023-05-07T00:47:10;102816.38;;;26.00;29.10
77737;BME280;66903;59.926;30.404;2023-05-07T00:52:14;102817.25;;;26.00;29.12
77737;BME280;66903;59.926;30.404;2023-05-07T00:57:15;102814.66;;;25.99;29.33
77737;BME280;66903;59.926;30.404;2023-05-07T01:02:16;102810.06;;;25.98;29.28
77737;BME280;66903;59.926;30.404;2023-05-07T01:07:17;102806.34;;;25.97;29.22
77737;BME280;66903;59.926;30.404;2023-05-07T01:12:17;102810.06;;;25.98;29.27
77737;BME280;66903;59.926;30.404;2023-05-07T01:17:18;102817.78;;;25.97;29.37
77737;BME280;66903;59.926;30.404;2023-05-07T01:22:38;102809.81;;;25.99;29.02
77737;BME280;66903;59.926;30.404;2023-05-07T01:27:38;102818.06;;;25.96;29.47
77737;BME280;66903;59.926;30.404;2023-05-07T01:32:49;102831.84;;;25.99;29.58
77737;BME280;66903;59.926;30.404;2023-05-07T01:37:51;102837.84;;;25.97;29.46
77737;BME280;66903;59.926;30.404;2023-05-07T01:42:52;102832.13;;;25.97;29.68
77737;BME280;66903;59.926;30.404;2023-05-07T01:47:56;102832.13;;;25.97;29.68
77737;BME280;66903;59.926;30.404;2023-05-07T01:52:58;102839.81;;;25.97;29.73
77737;BME280;66903;59.926;30.404;2023-05-07T01:57:58;102828.97;;;25.99;29.56
77737;BME280;66903;59.926;30.404;2023-05-07T02:02:59;102840.16;;;26.00;29.60
77737;BME280;66903;59.926;30.404;2023-05-07T02:07:59;102833.56;;;26.00;29.42
77737;BME280;66903;59.926;30.404;2023-05-07T02:13:00;102841.03;;;26.01;29.36
77737;BME280;66903;59.926;30.404;2023-05-07T02:18:07;102844.53;;;26.03;29.11
77737;BME280;66903;59.926;30.404;2023-05-07T02:23:08;102847.41;;;26.03;29.57
77737;BME280;66903;59.926;30.404;2023-05-07T02:28:08;102840.53;;;26.04;29.17
77737;BME280;66903;59.926;30.404;2023-05-07T02:33:09;102839.41;;;26.05;29.45
77737;BME280;66903;59.926;30.404;2023-05-07T02:38:12;102845.69;;;26.07;29.42
77737;BME280;66903;59.926;30.404;2023-05-07T02:43:13;102840.25;;;26.05;29.60
77737;BME280;66903;59.926;30.404;2023-05-07T02:48:13;102840.84;;;26.07;29.13
77737;BME280;66903;59.926;30.404;2023-05-07T02:53:14;102837.97;;;26.07;29.27
77737;BME280;66903;59.926;30.404;2023-05-07T02:58:15;102832.84;;;26.09;29.09
77737;BME280;66903;59.926;30.404;2023-05-07T03:03:16;102857.50;;;26.10;29.38
77737;BME280;66903;59.926;30.404;2023-05-07T03:08:17;102854.38;;;26.12;29.19
77737;BME280;66903;59.926;30.404;2023-05-07T03:13:18;102869.03;;;26.15;29.21
77737;BME280;66903;59.926;30.404;2023-05-07T03:18:18;102871.63;;;26.17;29.03
77737;BME280;66903;59.926;30.404;2023-05-07T03:23:19;102871.09;;;26.20;29.05
77737;BME280;66903;59.926;30.404;2023-05-07T03:28:20;102861.94;;;26.23;29.15
77737;BME280;66903;59.926;30.404;2023-05-07T03:33:20;102867.16;;;26.26;28.90
77737;BME280;66903;59.926;30.404;2023-05-07T03:38:21;102860.88;;;26.29;28.75
77737;BME280;66903;59.926;30.404;2023-05-07T03:43:21;102866.59;;;26.29;28.77
77737;BME280;66903;59.926;30.404;2023-05-07T03:48:22;102880.72;;;26.36;28.52
77737;BME280;66903;59.926;30.404;2023-05-07T03:53:22;102871.56;;;26.39;28.69
77737;BME280;66903;59.926;30.404;2023-05-07T03:58:23;102878.50;;;26.43;28.59
77737;BME280;66903;59.926;30.404;2023-05-07T04:03:23;102886.31;;;26.47;28.05
77737;BME280;66903;59.926;30.404;2023-05-07T04:08:24;102890.94;;;26.53;28.44
77737;BME280;66903;59.926;30.404;2023-05-07T04:13:25;102894.41;;;26.55;28.33
77737;BME280;66903;59.926;30.404;2023-05-07T04:18:25;102898.34;;;26.49;28.14
77737;BME280;66903;59.926;30.404;2023-05-07T04:23:26;102899.38;;;26.38;28.11
77737;BME280;66903;59.926;30.404;2023-05-07T04:28:26;102898.19;;;26.34;28.02
77737;BME280;66903;59.926;30.404;2023-05-07T04:33:27;102896.97;;;26.30;28.13
77737;BME280;66903;59.926;30.404;2023-05-07T04:38:29;102903.25;;;26.27;27.89
77737;BME280;66903;59.926;30.404;2023-05-07T04:43:30;102907.84;;;26.28;27.55
77737;BME280;66903;59.926;30.404;2023-05-07T04:48:30;102909.59;;;26.29;27.61
77737;BME280;66903;59.926;30.404;2023-05-07T04:53:31;102914.78;;;26.32;27.31
77737;BME280;66903;59.926;30.404;2023-05-07T04:58:31;102919.72;;;26.37;27.26
77737;BME280;66903;59.926;30.404;2023-05-07T05:03:32;102923.75;;;26.41;27.02
77737;BME280;66903;59.926;30.404;2023-05-07T05:08:33;102921.53;;;26.48;27.20
77737;BME280;66903;59.926;30.404;2023-05-07T05:13:33;102911.28;;;26.52;26.82
77737;BME280;66903;59.926;30.404;2023-05-07T05:18:34;102926.31;;;26.64;26.51
77737;BME280;66903;59.926;30.404;2023-05-07T05:23:35;102932.72;;;26.71;26.44
77737;BME280;66903;59.926;30.404;2023-05-07T05:28:35;102929.38;;;26.79;26.35
77737;BME280;66903;59.926;30.404;2023-05-07T05:33:36;102940.03;;;26.83;26.14
77737;BME280;66903;59.926;30.404;2023-05-07T05:38:36;102926.00;;;26.87;26.08
77737;BME280;66903;59.926;30.404;2023-05-07T05:43:37;102938.97;;;26.89;25.86
77737;BME280;66903;59.926;30.404;2023-05-07T05:48:37;102930.53;;;27.09;25.94
77737;BME280;66903;59.926;30.404;2023-05-07T05:53:38;102932.44;;;27.67;25.47
77737;BME280;66903;59.926;30.404;2023-05-07T05:58:38;102928.97;;;28.12;24.98
77737;BME280;66903;59.926;30.404;2023-05-07T06:03:39;102945.78;;;28.45;25.01
77737;BME280;66903;59.926;30.404;2023-05-07T06:08:40;102945.59;;;28.72;24.53
77737;BME280;66903;59.926;30.404;2023-05-07T06:13:40;102952.84;;;28.89;24.13
77737;BME280;66903;59.926;30.404;2023-05-07T06:18:41;102956.00;;;28.93;24.77
77737;BME280;66903;59.926;30.404;2023-05-07T06:23:41;102951.97;;;29.04;24.26
77737;BME280;66903;59.926;30.404;2023-05-07T06:28:42;102956.59;;;29.25;23.77
77737;BME280;66903;59.926;30.404;2023-05-07T06:33:44;102957.19;;;29.52;23.45
77737;BME280;66903;59.926;30.404;2023-05-07T06:38:45;102957.16;;;29.67;23.41
77737;BME280;66903;59.926;30.404;2023-05-07T06:43:46;102950.19;;;30.08;23.35
77737;BME280;66903;59.926;30.404;2023-05-07T06:48:46;102945.66;;;30.56;22.77
77737;BME280;66903;59.926;30.404;2023-05-07T06:53:47;102947.88;;;31.13;22.52
77737;BME280;66903;59.926;30.404;2023-05-07T06:58:47;102935.84;;;31.97;21.94
77737;BME280;66903;59.926;30.404;2023-05-07T07:03:48;102940.94;;;32.05;21.81
77737;BME280;66903;59.926;30.404;2023-05-07T07:08:48;102951.50;;;32.38;21.45
77737;BME280;66903;59.926;30.404;2023-05-07T07:13:49;102943.16;;;33.67;20.66
77737;BME280;66903;59.926;30.404;2023-05-07T07:18:51;102950.81;;;34.98;20.16
77737;BME280;66903;59.926;30.404;2023-05-07T07:23:51;102945.72;;;35.92;19.67
77737;BME280;66903;59.926;30.404;2023-05-07T07:28:52;102939.16;;;36.65;18.92
77737;BME280;66903;59.926;30.404;2023-05-07T07:33:52;102944.03;;;37.29;18.66
77737;BME280;66903;59.926;30.404;2023-05-07T07:38:53;102950.00;;;37.76;18.56
77737;BME280;66903;59.926;30.404;2023-05-07T07:43:54;102948.31;;;38.12;18.04
77737;BME280;66903;59.926;30.404;2023-05-07T07:48:55;102940.97;;;38.44;18.09
77737;BME280;66903;59.926;30.404;2023-05-07T07:53:55;102935.75;;;38.29;18.00
77737;BME280;66903;59.926;30.404;2023-05-07T07:58:57;102937.81;;;37.65;17.85
77737;BME280;66903;59.926;30.404;2023-05-07T08:03:58;102940.66;;;36.15;18.83
77737;BME280;66903;59.926;30.404;2023-05-07T08:09:03;102929.88;;;34.74;19.55
77737;BME280;66903;59.926;30.404;2023-05-07T08:14:04;102930.59;;;33.71;19.61
77737;BME280;66903;59.926;30.404;2023-05-07T08:19:05;102940.34;;;32.92;20.27
77737;BME280;66903;59.926;30.404;2023-05-07T08:24:06;102936.00;;;32.29;20.33
77737;BME280;66903;59.926;30.404;2023-05-07T08:29:06;102940.06;;;31.81;20.82
77737;BME280;66903;59.926;30.404;2023-05-07T08:34:08;102938.34;;;31.51;20.94
77737;BME280;66903;59.926;30.404;2023-05-07T08:39:08;102933.25;;;31.38;21.07
77737;BME280;66903;59.926;30.404;2023-05-07T08:44:12;102930.69;;;32.78;20.61
77737;BME280;66903;59.926;30.404;2023-05-07T08:49:13;102924.63;;;34.08;19.46
77737;BME280;66903;59.926;30.404;2023-05-07T08:54:16;102924.63;;;34.22;19.84
77737;BME280;66903;59.926;30.404;2023-05-07T08:59:18;102920.38;;;33.41;20.01
77737;BME280;66903;59.926;30.404;2023-05-07T09:04:18;102932.81;;;32.73;19.97
77737;BME280;66903;59.926;30.404;2023-05-07T09:09:19;102941.94;;;32.19;20.38
77737;BME280;66903;59.926;30.404;2023-05-07T09:14:21;102934.63;;;31.74;20.69
77737;BME280;66903;59.926;30.404;2023-05-07T09:19:26;102935.16;;;31.53;20.88
77737;BME280;66903;59.926;30.404;2023-05-07T09:24:26;102937.59;;;31.35;20.99
77737;BME280;66903;59.926;30.404;2023-05-07T09:29:28;102945.81;;;31.18;20.59
77737;BME280;66903;59.926;30.404;2023-05-07T09:34:30;102947.94;;;31.08;20.97
77737;BME280;66903;59.926;30.404;2023-05-07T09:39:40;102946.72;;;31.14;21.28
77737;BME280;66903;59.926;30.404;2023-05-07T09:44:43;102959.13;;;31.14;21.15
77737;BME280;66903;59.926;30.404;2023-05-07T09:49:46;102955.44;;;31.09;21.09
77737;BME280;66903;59.926;30.404;2023-05-07T09:54:48;102949.72;;;30.99;20.93
77737;BME280;66903;59.926;30.404;2023-05-07T09:59:51;102955.50;;;30.99;20.46
77737;BME280;66903;59.926;30.404;2023-05-07T10:04:52;102947.66;;;31.04;20.19
77737;BME280;66903;59.926;30.404;2023-05-07T10:09:57;102953.25;;;31.29;20.56
77737;BME280;66903;59.926;30.404;2023-05-07T10:14:59;102944.47;;;31.73;20.16
77737;BME280;66903;59.926;30.404;2023-05-07T10:19:59;102948.91;;;32.18;20.32
77737;BME280;66903;59.926;30.404;2023-05-07T10:25:02;102950.88;;;32.46;20.58
77737;BME280;66903;59.926;30.404;2023-05-07T10:30:16;102941.03;;;32.66;20.46
77737;BME280;66903;59.926;30.404;2023-05-07T10:35:29;102946.16;;;32.92;20.52
77737;BME280;66903;59.926;30.404;2023-05-07T10:40:32;102947.47;;;33.00;19.88
77737;BME280;66903;59.926;30.404;2023-05-07T10:45:33;102942.09;;;32.93;20.28
77737;BME280;66903;59.926;30.404;2023-05-07T10:50:34;102937.28;;;33.02;19.82
77737;BME280;66903;59.926;30.404;2023-05-07T10:55:35;102932.41;;;33.35;19.75
77737;BME280;66903;59.926;30.404;2023-05-07T11:05:36;102928.09;;;33.65;19.71
77737;BME280;66903;59.926;30.404;2023-05-07T11:10:51;102918.22;;;33.33;19.72
77737;BME280;66903;59.926;30.404;2023-05-07T11:15:52;102923.59;;;33.08;19.45
77737;BME280;66903;59.926;30.404;2023-05-07T11:20:57;102931.41;;;32.89;20.34
77737;BME280;66903;59.926;30.404;2023-05-07T11:26:09;102925.69;;;32.84;20.18
77737;BME280;66903;59.926;30.404;2023-05-07T11:31:10;102931.97;;;32.72;20.43
77737;BME280;66903;59.926;30.404;2023-05-07T11:36:12;102933.28;;;32.61;20.52
77737;BME280;66903;59.926;30.404;2023-05-07T11:41:13;102944.78;;;32.47;20.34
77737;BME280;66903;59.926;30.404;2023-05-07T11:46:13;102935.66;;;32.35;20.34
77737;BME280;66903;59.926;30.404;2023-05-07T11:51:19;102933.19;;;32.24;20.08
77737;BME280;66903;59.926;30.404;2023-05-07T11:56:20;102924.72;;;32.09;19.95
77737;BME280;66903;59.926;30.404;2023-05-07T12:01:20;102928.28;;;32.01;19.76
77737;BME280;66903;59.926;30.404;2023-05-07T12:06:21;102926.13;;;31.88;19.86
77737;BME280;66903;59.926;30.404;2023-05-07T12:11:23;102931.97;;;31.78;20.02
77737;BME280;66903;59.926;30.404;2023-05-07T12:16:25;102933.53;;;31.70;19.73
77737;BME280;66903;59.926;30.404;2023-05-07T12:21:26;102924.94;;;31.60;19.79
77737;BME280;66903;59.926;30.404;2023-05-07T12:26:26;102927.63;;;31.52;19.79
77737;BME280;66903;59.926;30.404;2023-05-07T12:31:28;102928.00;;;31.45;19.39
77737;BME280;66903;59.926;30.404;2023-05-07T12:36:37;102927.44;;;31.43;20.15
77737;BME280;66903;59.926;30.404;2023-05-07T12:41:58;102915.63;;;31.39;20.20
77737;BME280;66903;59.926;30.404;2023-05-07T12:47:02;102919.16;;;31.31;19.86
77737;BME280;66903;59.926;30.404;2023-05-07T12:52:03;102919.78;;;31.23;19.55
77737;BME280;66903;59.926;30.404;2023-05-07T12:57:08;102920.69;;;31.19;19.85
77737;BME280;66903;59.926;30.404;2023-05-07T13:02:09;102923.38;;;31.10;19.75
77737;BME280;66903;59.926;30.404;2023-05-07T13:07:09;102922.28;;;31.01;19.56
77737;BME280;66903;59.926;30.404;2023-05-07T13:12:10;102922.63;;;30.95;20.27
77737;BME280;66903;59.926;30.404;2023-05-07T13:17:11;102914.81;;;30.95;20.41
77737;BME280;66903;59.926;30.404;2023-05-07T13:22:11;102911.97;;;30.90;20.18
77737;BME280;66903;59.926;30.404;2023-05-07T13:27:12;102905.38;;;30.85;20.12
77737;BME280;66903;59.926;30.404;2023-05-07T13:32:12;102914.34;;;30.83;20.01
77737;BME280;66903;59.926;30.404;2023-05-07T13:37:13;102911.44;;;30.83;20.15
77737;BME280;66903;59.926;30.404;2023-05-07T13:42:13;102907.72;;;30.83;20.17
77737;BME280;66903;59.926;30.404;2023-05-07T13:47:14;102913.78;;;30.81;20.69
77737;BME280;66903;59.926;30.404;2023-05-07T13:52:15;102912.34;;;30.79;20.85
77737;BME280;66903;59.926;30.404;2023-05-07T13:57:16;102907.44;;;30.79;21.14
77737;BME280;66903;59.926;30.404;2023-05-07T14:02:16;102907.72;;;30.83;21.22
77737;BME280;66903;59.926;30.404;2023-05-07T14:07:17;102907.13;;;30.86;20.94
77737;BME280;66903;59.926;30.404;2023-05-07T14:12:17;102903.41;;;30.80;21.11
77737;BME280;66903;59.926;30.404;2023-05-07T14:17:18;102906.34;;;30.70;20.63
77737;BME280;66903;59.926;30.404;2023-05-07T14:22:20;102913.31;;;30.59;21.27
77737;BME280;66903;59.926;30.404;2023-05-07T14:27:20;102904.16;;;30.47;21.27
77737;BME280;66903;59.926;30.404;2023-05-07T14:32:56;102897.94;;;30.30;21.28
77737;BME280;66903;59.926;30.404;2023-05-07T14:37:56;102881.28;;;30.07;21.60
77737;BME280;66903;59.926;30.404;2023-05-07T14:42:57;102899.72;;;30.06;21.48
77737;BME280;66903;59.926;30.404;2023-05-07T14:47:57;102892.31;;;29.95;20.97
77737;BME280;66903;59.926;30.404;2023-05-07T14:52:58;102895.50;;;29.83;21.72
77737;BME280;66903;59.926;30.404;2023-05-07T14:57:58;102897.53;;;29.73;21.78
77737;BME280;66903;59.926;30.404;2023-05-07T15:03:06;102892.34;;;29.65;21.16
77737;BME280;66903;59.926;30.404;2023-05-07T15:08:07;102888.06;;;29.52;21.17
77737;BME280;66903;59.926;30.404;2023-05-07T15:13:11;102887.50;;;29.45;21.22
77737;BME280;66903;59.926;30.404;2023-05-07T15:18:12;102901.03;;;29.39;21.55
77737;BME280;66903;59.926;30.404;2023-05-07T15:23:13;102890.09;;;29.36;21.60
77737;BME280;66903;59.926;30.404;2023-05-07T15:28:14;102898.75;;;29.42;21.05
77737;BME280;66903;59.926;30.404;2023-05-07T15:33:14;102889.81;;;29.43;20.72
77737;BME280;66903;59.926;30.404;2023-05-07T15:38:15;102895.28;;;29.39;21.08
77737;BME280;66903;59.926;30.404;2023-05-07T15:43:15;102894.13;;;29.35;21.30
77737;BME280;66903;59.926;30.404;2023-05-07T15:48:16;102894.13;;;29.35;21.12
77737;BME280;66903;59.926;30.404;2023-05-07T15:53:17;102892.13;;;29.31;21.49
77737;BME280;66903;59.926;30.404;2023-05-07T15:58:17;102903.66;;;29.31;21.27
77737;BME280;66903;59.926;30.404;2023-05-07T16:03:20;102906.53;;;29.26;20.84
77737;BME280;66903;59.926;30.404;2023-05-07T16:08:22;102900.19;;;29.24;21.12
77737;BME280;66903;59.926;30.404;2023-05-07T16:13:23;102905.09;;;29.18;20.91
77737;BME280;66903;59.926;30.404;2023-05-07T16:18:24;102914.31;;;29.10;21.29
77737;BME280;66903;59.926;30.404;2023-05-07T16:23:24;102904.50;;;29.01;21.21
77737;BME280;66903;59.926;30.404;2023-05-07T16:28:25;102902.47;;;28.92;20.81
77737;BME280;66903;59.926;30.404;2023-05-07T16:33:26;102909.38;;;28.86;20.75
77737;BME280;66903;59.926;30.404;2023-05-07T16:38:26;102906.50;;;28.81;21.03
77737;BME280;66903;59.926;30.404;2023-05-07T16:43:27;102902.75;;;28.75;20.92
77737;BME280;66903;59.926;30.404;2023-05-07T16:48:28;102917.38;;;28.69;21.41
77737;BME280;66903;59.926;30.404;2023-05-07T16:53:28;102912.50;;;28.59;21.44
77737;BME280;66903;59.926;30.404;2023-05-07T16:58:29;102927.66;;;28.50;21.10
77737;BME280;66903;59.926;30.404;2023-05-07T17:03:29;102924.19;;;28.43;21.29
77737;BME280;66903;59.926;30.404;2023-05-07T17:08:31;102914.13;;;28.35;21.62
77737;BME280;66903;59.926;30.404;2023-05-07T17:13:31;102903.47;;;28.30;21.66
77737;BME280;66903;59.926;30.404;2023-05-07T17:18:32;102919.22;;;28.23;21.29
77737;BME280;66903;59.926;30.404;2023-05-07T17:23:32;102913.47;;;28.18;21.34
77737;BME280;66903;59.926;30.404;2023-05-07T17:28:33;102915.75;;;28.11;21.74
77737;BME280;66903;59.926;30.404;2023-05-07T17:33:34;102914.00;;;28.05;22.05
77737;BME280;66903;59.926;30.404;2023-05-07T17:38:35;102918.56;;;28.01;21.91
77737;BME280;66903;59.926;30.404;2023-05-07T17:43:35;102916.81;;;27.95;22.14
77737;BME280;66903;59.926;30.404;2023-05-07T17:48:36;102921.72;;;27.94;22.11
77737;BME280;66903;59.926;30.404;2023-05-07T17:53:36;102929.13;;;27.90;21.78
77737;BME280;66903;59.926;30.404;2023-05-07T17:58:37;102923.94;;;27.87;21.96
77737;BME280;66903;59.926;30.404;2023-05-07T18:03:37;102928.22;;;27.85;21.58
77737;BME280;66903;59.926;30.404;2023-05-07T18:08:38;102917.59;;;27.80;21.98
77737;BME280;66903;59.926;30.404;2023-05-07T18:13:38;102915.00;;;27.79;22.17
77737;BME280;66903;59.926;30.404;2023-05-07T18:18:40;102915.53;;;27.76;22.00
77737;BME280;66903;59.926;30.404;2023-05-07T18:23:40;102927.59;;;27.73;22.46
77737;BME280;66903;59.926;30.404;2023-05-07T18:28:41;102920.63;;;27.64;22.69
77737;BME280;66903;59.926;30.404;2023-05-07T18:33:42;102921.63;;;27.43;23.17
77737;BME280;66903;59.926;30.404;2023-05-07T18:38:42;102926.59;;;27.20;23.33
77737;BME280;66903;59.926;30.404;2023-05-07T18:43:43;102919.88;;;27.05;23.21
77737;BME280;66903;59.926;30.404;2023-05-07T18:48:43;102923.47;;;26.90;23.19
77737;BME280;66903;59.926;30.404;2023-05-07T18:53:44;102919.63;;;26.80;23.09
77737;BME280;66903;59.926;30.404;2023-05-07T18:58:44;102922.13;;;26.71;23.13
77737;BME280;66903;59.926;30.404;2023-05-07T19:03:45;102927.47;;;26.63;23.25
77737;BME280;66903;59.926;30.404;2023-05-07T19:08:45;102932.00;;;26.59;22.68
77737;BME280;66903;59.926;30.404;2023-05-07T19:13:46;102937.66;;;26.54;22.73
77737;BME280;66903;59.926;30.404;2023-05-07T19:18:46;102918.41;;;26.49;22.82
77737;BME280;66903;59.926;30.404;2023-05-07T19:23:47;102928.97;;;26.44;22.68
77737;BME280;66903;59.926;30.404;2023-05-07T19:28:50;102919.78;;;26.42;22.46
77737;BME280;66903;59.926;30.404;2023-05-07T19:33:51;102929.75;;;26.39;22.52
77737;BME280;66903;59.926;30.404;2023-05-07T19:38:52;102932.91;;;26.38;22.83
77737;BME280;66903;59.926;30.404;2023-05-07T19:43:53;102933.16;;;26.36;22.55
77737;BME280;66903;59.926;30.404;2023-05-07T19:48:54;102935.72;;;26.33;22.69
77737;BME280;66903;59.926;30.404;2023-05-07T19:53:55;102941.97;;;26.30;22.57
77737;BME280;66903;59.926;30.404;2023-05-07T19:58:55;102947.38;;;26.26;22.95
77737;BME280;66903;59.926;30.404;2023-05-07T20:03:56;102944.97;;;26.18;23.20
77737;BME280;66903;59.926;30.404;2023-05-07T20:08:56;102950.09;;;26.16;23.41
77737;BME280;66903;59.926;30.404;2023-05-07T20:13:56;102949.31;;;26.20;23.27
77737;BME280;66903;59.926;30.404;2023-05-07T20:18:58;102948.50;;;26.25;23.34
77737;BME280;66903;59.926;30.404;2023-05-07T20:23:58;102955.72;;;26.28;23.41
77737;BME280;66903;59.926;30.404;2023-05-07T20:28:59;102962.88;;;26.30;23.39
77737;BME280;66903;59.926;30.404;2023-05-07T20:33:59;102959.50;;;26.33;23.50
77737;BME280;66903;59.926;30.404;2023-05-07T20:39:00;102962.69;;;26.37;23.39
77737;BME280;66903;59.926;30.404;2023-05-07T20:44:00;102971.63;;;26.40;23.72
77737;BME280;66903;59.926;30.404;2023-05-07T20:49:02;102961.00;;;26.41;24.21
77737;BME280;66903;59.926;30.404;2023-05-07T20:54:02;102970.00;;;26.49;24.73
77737;BME280;66903;59.926;30.404;2023-05-07T20:59:03;102969.47;;;26.52;24.65
77737;BME280;66903;59.926;30.404;2023-05-07T21:04:03;102973.28;;;26.58;24.71
77737;BME280;66903;59.926;30.404;2023-05-07T21:09:04;102971.84;;;26.60;24.39
77737;BME280;66903;59.926;30.404;2023-05-07T21:14:05;102982.78;;;26.63;24.70
77737;BME280;66903;59.926;30.404;2023-05-07T21:19:05;102985.75;;;26.68;25.04
77737;BME280;66903;59.926;30.404;2023-05-07T21:24:06;102988.09;;;26.71;24.66
77737;BME280;66903;59.926;30.404;2023-05-07T21:29:07;102983.78;;;26.74;24.90
77737;BME280;66903;59.926;30.404;2023-05-07T21:34:10;102992.16;;;26.75;25.15
77737;BME280;66903;59.926;30.404;2023-05-07T21:39:11;103007.94;;;26.78;25.74
77737;BME280;66903;59.926;30.404;2023-05-07T21:44:11;103001.09;;;26.79;25.69
77737;BME280;66903;59.926;30.404;2023-05-07T21:49:12;103007.34;;;26.76;25.48
77737;BME280;66903;59.926;30.404;2023-05-07T21:54:13;103005.28;;;26.71;25.32
77737;BME280;66903;59.926;30.404;2023-05-07T21:59:13;103004.09;;;26.67;25.52
77737;BME280;66903;59.926;30.404;2023-05-07T22:04:14;102990.81;;;26.61;25.36
77737;BME280;66903;59.926;30.404;2023-05-07T22:09:15;103000.84;;;26.64;25.56
77737;BME280;66903;59.926;30.404;2023-05-07T22:14:16;103000.53;;;26.60;25.81
77737;BME280;66903;59.926;30.404;2023-05-07T22:19:16;103002.28;;;26.61;25.77
77737;BME280;66903;59.926;30.404;2023-05-07T22:24:17;102993.06;;;26.59;25.78
77737;BME280;66903;59.926;30.404;2023-05-07T22:29:17;102992.19;;;26.59;26.03
77737;BME280;66903;59.926;30.404;2023-05-07T22:34:20;102984.97;;;26.56;25.92
77737;BME280;66903;59.926;30.404;2023-05-07T22:39:20;102987.53;;;26.53;25.89
77737;BME280;66903;59.926;30.404;2023-05-07T22:44:21;102992.47;;;26.57;25.67
77737;BME280;66903;59.926;30.404;2023-05-07T22:49:21;102991.31;;;26.58;25.82
77737;BME280;66903;59.926;30.404;2023-05-07T22:54:22;102989.59;;;26.57;26.02
77737;BME280;66903;59.926;30.404;2023-05-07T22:59:23;102992.47;;;26.57;25.97
77737;BME280;66903;59.926;30.404;2023-05-07T23:04:23;102999.09;;;26.58;25.99
77737;BME280;66903;59.926;30.404;2023-05-07T23:09:24;102994.19;;;26.58;26.00
77737;BME280;66903;59.926;30.404;2023-05-07T23:14:24;102987.84;;;26.56;26.08
77737;BME280;66903;59.926;30.404;2023-05-07T23:19:25;102995.34;;;26.57;26.30
77737;BME280;66903;59.926;30.404;2023-05-07T23:24:26;103001.06;;;26.57;26.24
77737;BME280;66903;59.926;30.404;2023-05-07T23:29:26;103001.06;;;26.57;26.63
77737;BME280;66903;59.926;30.404;2023-05-07T23:34:27;103002.19;;;26.56;26.41
77737;BME280;66903;59.926;30.404;2023-05-07T23:39:27;102997.31;;;26.57;26.50
77737;BME280;66903;59.926;30.404;2023-05-07T23:44:28;102996.72;;;26.55;26.75
77737;BME280;66903;59.926;30.404;2023-05-07T23:49:28;102993.59;;;26.56;26.55
77737;BME280;66903;59.926;30.404;2023-05-07T23:54:29;102993.59;;;26.56;26.70
77737;BME280;66903;59.926;30.404;2023-05-07T23:59:29;102996.72;;;26.55;26.71
